Time;durP1;ratioP1;P1;durP2;ratioP2;P2;SDS_P1;SDS_P2;PMS_P1;PMS_P2;Temp;Humidity;BMP_temperature;BMP_pressure;BME280_temperature;BME280_humidity;BME280_pressure;Samples;Min_cycle;Max_cycle;Signal;HPM_P1;HPM_P2
2020/12/07 00:01:37;;;;;;;24.08;15.23;;;5.60;99.90;;;;;;5096907;28;20163;-59
2020/12/07 00:04:03;;;;;;;23.75;14.88;;;5.60;99.90;;;;;;5097253;28;20168;-59
2020/12/07 00:06:28;;;;;;;24.38;15.70;;;5.70;99.90;;;;;;5096817;28;20517;-59
2020/12/07 00:08:53;;;;;;;28.25;15.38;;;5.70;99.90;;;;;;5096853;28;20171;-59
2020/12/07 00:11:19;;;;;;;23.42;15.13;;;5.70;99.90;;;;;;5096725;28;20175;-59
2020/12/07 00:13:45;;;;;;;23.95;15.80;;;5.70;99.90;;;;;;5097074;28;20313;-59
2020/12/07 00:16:10;;;;;;;23.92;15.27;;;5.70;99.90;;;;;;5096764;28;20588;-59
2020/12/07 00:18:37;;;;;;;23.30;15.68;;;5.70;99.90;;;;;;5096554;28;20199;-59
2020/12/07 00:21:06;;;;;;;24.05;15.13;;;5.70;99.90;;;;;;5096675;28;20190;-58
2020/12/07 00:23:32;;;;;;;23.33;14.93;;;5.70;99.90;;;;;;5096838;28;20558;-58
2020/12/07 00:25:57;;;;;;;22.48;14.15;;;5.70;99.90;;;;;;5096406;28;20163;-58
2020/12/07 00:28:23;;;;;;;23.52;14.80;;;5.70;99.90;;;;;;5096464;28;20186;-57
2020/12/07 00:30:48;;;;;;;25.02;15.77;;;5.70;99.90;;;;;;5096340;28;20170;-58
2020/12/07 00:33:14;;;;;;;24.20;14.93;;;5.70;99.90;;;;;;5096627;28;20164;-59
2020/12/07 00:35:39;;;;;;;21.80;14.32;;;5.70;99.90;;;;;;5096411;28;20168;-59
2020/12/07 00:38:05;;;;;;;23.33;14.98;;;5.70;99.90;;;;;;5096536;28;20164;-59
2020/12/07 00:40:30;;;;;;;24.88;14.40;;;5.70;99.90;;;;;;5096253;28;20171;-59
2020/12/07 00:42:56;;;;;;;24.65;14.45;;;5.70;99.90;;;;;;5096397;28;20591;-58
2020/12/07 00:45:21;;;;;;;24.67;14.82;;;5.70;99.90;;;;;;5095869;28;20191;-59
2020/12/07 00:47:47;;;;;;;24.48;15.20;;;5.70;99.90;;;;;;5096100;28;20167;-58
2020/12/07 00:50:12;;;;;;;22.27;14.70;;;5.70;99.90;;;;;;5096240;28;20450;-59
2020/12/07 00:52:38;;;;;;;22.90;14.90;;;5.70;99.90;;;;;;5096545;28;20171;-59
2020/12/07 00:55:04;;;;;;;24.77;14.40;;;5.70;99.90;;;;;;5095976;28;20221;-59
2020/12/07 00:57:30;;;;;;;23.30;15.35;;;5.70;99.90;;;;;;5096143;28;20168;-59
2020/12/07 00:59:55;;;;;;;23.20;14.57;;;5.70;99.90;;;;;;5096312;28;20195;-59
2020/12/07 01:02:21;;;;;;;24.17;14.85;;;5.70;99.90;;;;;;5095736;28;20163;-59
2020/12/07 01:04:46;;;;;;;21.38;14.27;;;5.70;99.90;;;;;;5096054;28;20174;-59
2020/12/07 01:07:12;;;;;;;23.33;15.23;;;5.70;99.90;;;;;;5095739;28;20179;-59
2020/12/07 01:09:38;;;;;;;23.48;14.50;;;5.70;99.90;;;;;;5095981;28;20167;-58
2020/12/07 01:12:03;;;;;;;21.15;14.38;;;5.60;99.90;;;;;;5095827;28;20179;-58
2020/12/07 01:14:29;;;;;;;22.48;14.20;;;5.60;99.90;;;;;;5095872;28;20607;-59
2020/12/07 01:16:54;;;;;;;23.20;15.10;;;5.60;99.90;;;;;;5095762;28;20171;-59
2020/12/07 01:19:22;;;;;;;22.58;14.32;;;5.60;99.90;;;;;;5095853;28;20195;-58
2020/12/07 01:21:47;;;;;;;21.95;14.68;;;5.60;99.90;;;;;;5095733;28;20172;-59
2020/12/07 01:24:13;;;;;;;24.65;14.88;;;5.60;99.90;;;;;;5096238;28;20167;-59
2020/12/07 01:26:39;;;;;;;21.90;13.88;;;5.60;99.90;;;;;;5095321;28;20503;-59
2020/12/07 01:29:05;;;;;;;22.00;14.63;;;5.60;99.90;;;;;;5095715;28;20250;-59
2020/12/07 01:31:31;;;;;;;23.13;14.90;;;5.60;99.90;;;;;;5095437;28;20159;-59
2020/12/07 01:33:57;;;;;;;21.77;14.50;;;5.70;99.90;;;;;;5095512;28;20174;-58
2020/12/07 01:36:23;;;;;;;23.48;14.40;;;5.70;99.90;;;;;;5095352;28;20174;-59
2020/12/07 01:38:48;;;;;;;23.27;14.63;;;5.70;99.90;;;;;;5095219;28;20191;-59
2020/12/07 01:41:14;;;;;;;24.65;14.55;;;5.70;99.90;;;;;;5095061;28;20551;-59
2020/12/07 01:43:39;;;;;;;22.88;13.60;;;5.80;99.90;;;;;;5095140;28;20246;-59
2020/12/07 01:46:06;;;;;;;25.60;14.65;;;5.70;99.90;;;;;;5095119;28;20217;-59
2020/12/07 01:48:32;;;;;;;22.48;14.00;;;5.80;99.90;;;;;;5095418;28;20199;-59
2020/12/07 01:50:58;;;;;;;22.27;14.45;;;5.80;99.90;;;;;;5095197;28;20167;-59
2020/12/07 01:53:24;;;;;;;21.70;14.80;;;5.80;99.90;;;;;;5095071;28;20172;-59
2020/12/07 01:55:50;;;;;;;20.90;13.73;;;5.80;99.90;;;;;;5094471;28;20183;-59
2020/12/07 01:58:16;;;;;;;24.92;14.98;;;5.80;99.90;;;;;;5093967;28;20224;-59
2020/12/07 02:00:42;;;;;;;24.50;13.57;;;5.80;99.90;;;;;;5094949;28;20171;-59
2020/12/07 02:03:09;;;;;;;24.30;14.23;;;5.80;99.90;;;;;;5094227;28;20195;-59
2020/12/07 02:05:38;;;;;;;23.00;14.27;;;5.80;99.90;;;;;;5094896;28;20151;-59
2020/12/07 02:08:10;;;;;;;23.13;13.43;;;5.90;99.90;;;;;;5094782;28;20634;-59
2020/12/07 02:10:36;;;;;;;21.48;14.15;;;5.80;99.90;;;;;;5095076;28;20159;-59
2020/12/07 02:13:02;;;;;;;22.85;14.57;;;5.90;99.90;;;;;;5095007;28;20471;-58
2020/12/07 02:15:27;;;;;;;22.75;13.93;;;5.90;99.90;;;;;;5095097;28;20186;-59
2020/12/07 02:17:53;;;;;;;21.88;14.40;;;5.90;99.90;;;;;;5094748;28;20281;-59
2020/12/07 02:20:18;;;;;;;23.60;14.20;;;5.90;99.90;;;;;;5094649;28;20209;-59
2020/12/07 02:22:44;;;;;;;21.65;14.07;;;5.90;99.90;;;;;;5094738;28;20172;-59
2020/12/07 02:25:09;;;;;;;22.27;14.93;;;5.80;99.90;;;;;;5094884;28;20175;-59
2020/12/07 02:27:35;;;;;;;25.27;14.55;;;5.80;99.90;;;;;;5097182;28;20492;-58
2020/12/07 02:30:00;;;;;;;20.65;13.75;;;5.80;99.90;;;;;;5096100;28;20176;-59
2020/12/07 02:32:26;;;;;;;23.35;14.25;;;5.80;99.90;;;;;;5095962;28;20304;-59
2020/12/07 02:34:51;;;;;;;23.27;15.10;;;5.80;99.90;;;;;;5098327;28;20199;-59
2020/12/07 02:37:17;;;;;;;22.80;14.85;;;5.80;99.90;;;;;;5102614;28;20172;-59
2020/12/07 02:39:42;;;;;;;23.02;14.60;;;5.70;99.90;;;;;;5102070;28;20187;-59
2020/12/07 02:42:08;;;;;;;24.00;14.70;;;5.70;99.90;;;;;;5095631;28;20704;-59
2020/12/07 02:44:33;;;;;;;20.40;13.80;;;5.70;99.90;;;;;;5094730;28;20167;-59
2020/12/07 02:46:59;;;;;;;24.08;14.50;;;5.70;99.90;;;;;;5094656;28;20171;-59
2020/12/07 02:49:25;;;;;;;22.60;13.80;;;5.70;99.90;;;;;;5094772;28;20172;-59
2020/12/07 02:51:51;;;;;;;22.50;13.88;;;5.70;99.90;;;;;;5094664;28;20221;-59
2020/12/07 02:54:16;;;;;;;22.58;14.40;;;5.70;99.90;;;;;;5094780;28;20176;-59
2020/12/07 02:56:42;;;;;;;23.10;14.85;;;5.70;99.90;;;;;;5094597;28;20199;-59
2020/12/07 02:59:07;;;;;;;22.23;14.18;;;5.70;99.90;;;;;;5094594;28;20191;-59
2020/12/07 03:01:33;;;;;;;21.02;13.20;;;5.60;99.90;;;;;;5094439;28;20164;-59
2020/12/07 03:03:58;;;;;;;21.75;14.00;;;5.60;99.90;;;;;;5094552;28;20168;-60
2020/12/07 03:06:24;;;;;;;22.95;14.45;;;5.60;99.90;;;;;;5094357;28;20163;-59
2020/12/07 03:08:49;;;;;;;22.23;14.27;;;5.60;99.90;;;;;;5095847;28;20229;-59
2020/12/07 03:11:15;;;;;;;23.35;14.80;;;5.50;99.90;;;;;;5097949;28;20172;-59
2020/12/07 03:13:40;;;;;;;21.30;14.32;;;5.50;99.90;;;;;;5097867;28;20170;-59
2020/12/07 03:16:06;;;;;;;23.15;14.10;;;5.50;99.90;;;;;;5097862;28;20164;-59
2020/12/07 03:18:31;;;;;;;20.83;13.82;;;5.40;99.90;;;;;;5097681;28;20635;-59
2020/12/07 03:20:57;;;;;;;21.63;13.50;;;5.40;99.90;;;;;;5097999;28;20214;-59
2020/12/07 03:23:22;;;;;;;25.80;14.57;;;5.40;99.90;;;;;;5097692;28;20200;-59
2020/12/07 03:25:48;;;;;;;22.20;13.98;;;5.40;99.90;;;;;;5097694;28;20159;-59
2020/12/07 03:28:13;;;;;;;19.02;13.40;;;5.40;99.90;;;;;;5097589;28;20163;-59
2020/12/07 03:30:39;;;;;;;24.35;13.82;;;5.40;99.90;;;;;;5097503;28;20241;-59
2020/12/07 03:33:04;;;;;;;21.52;14.90;;;5.40;99.90;;;;;;5097728;28;20542;-59
2020/12/07 03:35:30;;;;;;;20.77;13.43;;;5.40;99.90;;;;;;5097595;28;20167;-59
2020/12/07 03:37:55;;;;;;;23.92;14.38;;;5.40;99.90;;;;;;5097545;28;20164;-59
2020/12/07 03:40:21;;;;;;;21.67;14.25;;;5.40;99.90;;;;;;5097390;28;20190;-59
2020/12/07 03:42:46;;;;;;;23.40;14.70;;;5.40;99.90;;;;;;5097303;28;20155;-59
2020/12/07 03:45:12;;;;;;;22.52;14.45;;;5.40;99.90;;;;;;5097489;28;20495;-59
2020/12/07 03:47:37;;;;;;;22.77;13.73;;;5.40;99.90;;;;;;5097184;28;20168;-59
2020/12/07 03:50:03;;;;;;;23.83;14.60;;;5.40;99.90;;;;;;5097475;28;20159;-59
2020/12/07 03:52:29;;;;;;;22.42;14.15;;;5.40;99.90;;;;;;5097094;28;20213;-59
2020/12/07 03:54:54;;;;;;;24.30;14.82;;;5.40;99.90;;;;;;5097126;28;20195;-59
2020/12/07 03:57:20;;;;;;;20.65;13.45;;;5.40;99.90;;;;;;5097004;28;20182;-58
2020/12/07 03:59:45;;;;;;;22.27;13.75;;;5.40;99.90;;;;;;5096974;28;20201;-59
2020/12/07 04:02:11;;;;;;;24.17;13.63;;;5.40;99.90;;;;;;5097297;28;20163;-59
2020/12/07 04:04:45;;;;;;;24.10;14.52;;;5.40;99.90;;;;;;5097130;28;20171;-58
2020/12/07 04:07:11;;;;;;;21.65;14.23;;;5.40;99.90;;;;;;5097264;28;20494;-58
2020/12/07 04:09:36;;;;;;;20.00;13.73;;;5.50;99.90;;;;;;5096714;28;20163;-59
2020/12/07 04:12:02;;;;;;;22.58;13.73;;;5.50;99.90;;;;;;5096815;28;20174;-59
2020/12/07 04:14:27;;;;;;;23.23;14.50;;;5.60;99.90;;;;;;5096603;28;20170;-58
2020/12/07 04:16:53;;;;;;;22.35;13.65;;;5.60;99.90;;;;;;5096718;28;20171;-58
2020/12/07 04:19:18;;;;;;;22.35;13.95;;;5.60;99.90;;;;;;5096186;28;20183;-59
2020/12/07 04:21:44;;;;;;;21.98;13.75;;;5.70;99.90;;;;;;5096668;28;20176;-59
2020/12/07 04:24:09;;;;;;;21.95;14.85;;;5.70;99.90;;;;;;5096643;28;20168;-59
2020/12/07 04:26:35;;;;;;;22.05;13.73;;;5.70;99.90;;;;;;5096818;28;20167;-59
2020/12/07 04:29:01;;;;;;;24.38;14.85;;;5.70;99.90;;;;;;5096343;28;20512;-58
2020/12/07 04:31:26;;;;;;;20.50;13.65;;;5.70;99.90;;;;;;5096957;28;20160;-59
2020/12/07 04:33:52;;;;;;;21.10;13.32;;;5.70;99.90;;;;;;5096395;28;20599;-58
2020/12/07 04:36:17;;;;;;;24.50;14.57;;;5.70;99.90;;;;;;5096338;28;20175;-59
2020/12/07 04:38:43;;;;;;;23.83;14.23;;;5.70;99.90;;;;;;5096224;28;20195;-58
2020/12/07 04:41:09;;;;;;;22.17;14.10;;;5.70;99.90;;;;;;5096372;28;20171;-59
2020/12/07 04:43:35;;;;;;;22.05;14.48;;;5.70;99.90;;;;;;5096134;28;20172;-59
2020/12/07 04:46:01;;;;;;;23.63;15.35;;;5.70;99.90;;;;;;5095227;28;20262;-59
2020/12/07 04:48:27;;;;;;;21.95;14.80;;;5.70;99.90;;;;;;5095059;28;20259;-59
2020/12/07 04:50:54;;;;;;;20.23;14.00;;;5.70;99.90;;;;;;5095239;28;20171;-59
2020/12/07 04:53:21;;;;;;;23.08;14.45;;;5.70;99.90;;;;;;5095965;28;20163;-59
2020/12/07 04:55:47;;;;;;;22.23;13.60;;;5.70;99.90;;;;;;5095934;28;20168;-59
2020/12/07 04:58:13;;;;;;;22.83;14.05;;;5.70;99.90;;;;;;5094982;28;20245;-59
2020/12/07 05:00:40;;;;;;;21.02;13.40;;;5.70;99.90;;;;;;5096078;28;20282;-57
2020/12/07 05:03:06;;;;;;;20.35;14.30;;;5.60;99.90;;;;;;5095917;28;20167;-59
2020/12/07 05:05:31;;;;;;;22.73;14.32;;;5.60;99.90;;;;;;5096064;28;20160;-59
2020/12/07 05:07:57;;;;;;;23.17;14.55;;;5.60;99.90;;;;;;5094704;28;20502;-59
2020/12/07 05:10:36;;;;;;;20.75;14.23;;;5.60;99.90;;;;;;5094620;28;20595;-59
2020/12/07 05:13:15;;;;;;;19.90;13.93;;;5.60;99.90;;;;;;5095813;28;20158;-59
2020/12/07 05:15:42;;;;;;;20.38;13.98;;;5.60;99.90;;;;;;5095827;28;20238;-58
2020/12/07 05:18:08;;;;;;;23.73;14.27;;;5.60;99.90;;;;;;5095662;28;20244;-59
2020/12/07 05:20:33;;;;;;;22.38;14.82;;;5.60;99.90;;;;;;5095561;28;20666;-58
2020/12/07 05:23:00;;;;;;;22.17;13.93;;;5.60;99.90;;;;;;5095508;28;20159;-59
2020/12/07 05:25:26;;;;;;;22.08;14.25;;;5.60;99.90;;;;;;5095415;28;20163;-59
2020/12/07 05:27:52;;;;;;;22.05;14.40;;;5.50;99.90;;;;;;5095464;28;20453;-59
2020/12/07 05:30:22;;;;;;;20.88;14.73;;;5.60;99.90;;;;;;5094990;28;20230;-59
2020/12/07 05:32:48;;;;;;;22.52;13.65;;;5.60;99.90;;;;;;5094755;28;20563;-59
2020/12/07 05:35:13;;;;;;;21.63;14.32;;;5.60;99.90;;;;;;5095068;28;20179;-59
2020/12/07 05:37:39;;;;;;;20.33;13.63;;;5.60;99.90;;;;;;5095081;28;20179;-59
2020/12/07 05:40:06;;;;;;;21.55;13.80;;;5.60;99.90;;;;;;5094957;28;20202;-59
2020/12/07 05:42:32;;;;;;;22.17;14.15;;;5.60;99.90;;;;;;5094518;28;20181;-59
2020/12/07 05:44:59;;;;;;;20.52;13.73;;;5.60;99.90;;;;;;5094844;28;20251;-59
2020/12/07 05:47:26;;;;;;;19.95;13.50;;;5.60;99.90;;;;;;5095076;28;20154;-59
2020/12/07 05:49:54;;;;;;;20.80;13.63;;;5.60;99.90;;;;;;5095146;28;20206;-59
2020/12/07 05:52:33;;;;;;;20.48;13.88;;;5.60;99.90;;;;;;5095219;28;20235;-59
2020/12/07 05:55:01;;;;;;;22.45;13.60;;;5.60;99.90;;;;;;5094852;28;20159;-58
2020/12/07 05:57:28;;;;;;;22.20;13.50;;;5.50;99.90;;;;;;5094932;28;20514;-59
2020/12/07 06:00:03;;;;;;;21.15;13.73;;;5.50;99.90;;;;;;5094963;28;20197;-59
2020/12/07 06:02:29;;;;;;;20.15;13.80;;;5.50;99.90;;;;;;5093620;28;20558;-59
2020/12/07 06:04:55;;;;;;;21.60;13.38;;;5.50;99.90;;;;;;5093683;28;20202;-59
2020/12/07 06:07:24;;;;;;;21.15;13.85;;;5.50;99.90;;;;;;5093365;28;20171;-58
2020/12/07 06:09:50;;;;;;;22.05;13.90;;;5.50;99.90;;;;;;5096814;28;20254;-58
2020/12/07 06:12:23;;;;;;;20.95;14.60;;;5.50;99.90;;;;;;5094742;28;20198;-59
2020/12/07 06:14:49;;;;;;;22.20;14.95;;;5.50;99.90;;;;;;5100137;28;20195;-59
2020/12/07 06:17:30;;;;;;;22.33;14.18;;;5.50;99.90;;;;;;5103952;28;20171;-58
2020/12/07 06:19:56;;;;;;;21.50;13.77;;;5.50;99.90;;;;;;5098967;28;20187;-58
2020/12/07 06:22:22;;;;;;;21.55;14.25;;;5.50;99.90;;;;;;5094724;28;20166;-58
2020/12/07 06:24:53;;;;;;;23.27;13.80;;;5.50;99.90;;;;;;5094599;28;20510;-58
2020/12/07 06:27:19;;;;;;;23.02;14.10;;;5.40;99.90;;;;;;5094952;28;20148;-58
2020/12/07 06:30:05;;;;;;;19.23;13.93;;;5.40;99.90;;;;;;5094800;28;20217;-58
2020/12/07 06:32:50;;;;;;;21.00;13.88;;;5.40;99.90;;;;;;5094709;28;20167;-58
2020/12/07 06:35:16;;;;;;;20.92;14.05;;;5.40;99.90;;;;;;5092700;28;20225;-58
2020/12/07 06:37:43;;;;;;;21.15;14.35;;;5.40;99.90;;;;;;5092636;28;20175;-58
2020/12/07 06:40:09;;;;;;;22.10;14.38;;;5.30;99.90;;;;;;5092678;28;20627;-58
2020/12/07 06:42:42;;;;;;;23.27;14.35;;;5.30;99.90;;;;;;5094225;28;20246;-58
2020/12/07 06:45:09;;;;;;;21.33;14.02;;;5.40;99.90;;;;;;5096562;28;20198;-58
2020/12/07 06:47:39;;;;;;;20.83;13.07;;;5.40;99.90;;;;;;5096844;28;20495;-58
2020/12/07 06:50:14;;;;;;;22.98;13.93;;;5.40;99.90;;;;;;5097931;28;20185;-58
2020/12/07 06:52:41;;;;;;;23.02;14.05;;;5.40;99.90;;;;;;5098664;28;20208;-58
2020/12/07 06:55:10;;;;;;;21.20;14.50;;;5.40;99.90;;;;;;5098079;28;20511;-58
2020/12/07 06:57:45;;;;;;;21.38;14.05;;;5.40;99.90;;;;;;5098445;28;20172;-58
2020/12/07 07:00:18;;;;;;;20.35;13.40;;;5.40;99.90;;;;;;5098119;28;20331;-58
2020/12/07 07:02:48;;;;;;;20.08;13.38;;;5.40;99.90;;;;;;5098138;28;20160;-58
2020/12/07 07:05:15;;;;;;;21.80;13.73;;;5.40;99.90;;;;;;5097908;28;20603;-58
2020/12/07 07:07:41;;;;;;;22.95;14.60;;;5.40;99.90;;;;;;5098235;28;20179;-59
2020/12/07 07:10:08;;;;;;;24.63;14.38;;;5.40;99.90;;;;;;5098039;28;20228;-59
2020/12/07 07:12:34;;;;;;;19.85;13.10;;;5.40;99.90;;;;;;5098180;28;20167;-58
2020/12/07 07:15:00;;;;;;;20.85;13.38;;;5.40;99.90;;;;;;5097742;28;20160;-58
2020/12/07 07:17:31;;;;;;;17.80;13.45;;;5.40;99.90;;;;;;5098047;28;20174;-58
2020/12/07 07:19:58;;;;;;;20.42;14.20;;;5.40;99.90;;;;;;5097843;28;20225;-58
2020/12/07 07:22:24;;;;;;;20.88;13.00;;;5.40;99.90;;;;;;5097863;28;20625;-58
2020/12/07 07:25:05;;;;;;;20.60;13.80;;;5.30;99.90;;;;;;5097575;28;20607;-58
2020/12/07 07:30:15;;;;;;;20.80;13.35;;;5.40;99.90;;;;;;5097710;28;20202;-58
2020/12/07 07:32:42;;;;;;;20.77;13.55;;;5.40;99.90;;;;;;5097826;28;20175;-58
2020/12/07 07:35:09;;;;;;;21.95;13.38;;;5.40;99.90;;;;;;5097351;28;20168;-58
2020/12/07 07:37:35;;;;;;;21.05;13.10;;;5.40;99.90;;;;;;5097664;28;20630;-58
2020/12/07 07:40:15;;;;;;;22.60;13.45;;;5.50;99.90;;;;;;5096211;28;20203;-58
2020/12/07 07:42:44;;;;;;;19.40;12.95;;;5.50;99.90;;;;;;5097579;28;20486;-58
2020/12/07 07:45:11;;;;;;;21.55;13.43;;;5.50;99.90;;;;;;5097018;28;20211;-58
2020/12/07 07:47:44;;;;;;;21.67;14.18;;;5.50;99.90;;;;;;5097239;28;20634;-58
2020/12/07 07:50:33;;;;;;;22.58;13.07;;;5.50;99.90;;;;;;5096610;28;20148;-59
2020/12/07 08:03:05;;;;;;;19.88;12.88;;;5.60;99.90;;;;;;5096653;28;20151;-59
2020/12/07 08:11:35;;;;;;;21.85;13.23;;;5.70;99.90;;;;;;5097007;28;20587;-58
2020/12/07 08:16:19;;;;;;;20.35;12.75;;;5.80;99.90;;;;;;5096935;28;20217;-58
2020/12/07 08:18:46;;;;;;;19.70;11.57;;;5.80;99.90;;;;;;5096484;28;20210;-58
2020/12/07 08:21:12;;;;;;;20.25;13.43;;;5.90;99.90;;;;;;5096906;28;20171;-59
2020/12/07 08:23:38;;;;;;;18.88;12.63;;;5.90;99.90;;;;;;5096517;28;20645;-60
2020/12/07 08:26:05;;;;;;;18.15;11.55;;;5.90;99.90;;;;;;5096582;28;20159;-59
2020/12/07 08:28:31;;;;;;;19.13;12.40;;;5.90;99.90;;;;;;5096663;28;20225;-59
2020/12/07 08:31:08;;;;;;;20.40;12.05;;;5.90;99.90;;;;;;5096639;28;20167;-59
2020/12/07 08:33:39;;;;;;;18.73;11.45;;;6.00;99.90;;;;;;5097136;28;20615;-59
2020/12/07 08:36:06;;;;;;;20.10;12.18;;;6.00;99.90;;;;;;5096841;28;20564;-58
2020/12/07 08:38:33;;;;;;;19.55;11.70;;;6.10;99.90;;;;;;5096292;28;20587;-59
2020/12/07 08:41:07;;;;;;;20.98;11.93;;;6.10;99.90;;;;;;5096177;28;20258;-59
2020/12/07 08:43:33;;;;;;;15.85;10.65;;;6.20;99.90;;;;;;5096538;28;20171;-59
2020/12/07 08:45:58;;;;;;;17.63;12.50;;;6.20;99.90;;;;;;5095914;28;20199;-60
2020/12/07 08:48:24;;;;;;;16.33;10.82;;;6.30;99.90;;;;;;5095812;28;20220;-59
2020/12/07 08:50:50;;;;;;;16.05;10.85;;;6.30;99.90;;;;;;5095855;28;20167;-59
2020/12/07 08:53:15;;;;;;;17.05;11.98;;;6.40;99.90;;;;;;5095007;28;20599;-59
2020/12/07 08:55:41;;;;;;;16.15;10.85;;;6.40;99.90;;;;;;5095977;28;20168;-59
2020/12/07 08:58:07;;;;;;;16.85;10.98;;;6.50;99.90;;;;;;5096083;28;20504;-59
2020/12/07 09:00:33;;;;;;;17.00;11.38;;;6.50;99.90;;;;;;5096086;28;20198;-59
2020/12/07 09:02:59;;;;;;;16.08;10.48;;;6.50;99.90;;;;;;5095657;28;20635;-59
2020/12/07 09:05:24;;;;;;;19.60;11.65;;;6.60;99.90;;;;;;5095222;28;20177;-59
2020/12/07 09:07:50;;;;;;;17.65;11.30;;;6.60;99.90;;;;;;5095419;28;20160;-59
2020/12/07 09:10:15;;;;;;;15.45;10.77;;;6.70;99.90;;;;;;5095918;28;20160;-59
2020/12/07 09:12:41;;;;;;;14.50;10.43;;;6.80;99.90;;;;;;5095714;28;20228;-59
2020/12/07 09:15:06;;;;;;;17.23;10.85;;;6.80;99.90;;;;;;5095820;28;20168;-59
2020/12/07 09:17:32;;;;;;;15.27;10.77;;;6.90;99.90;;;;;;5095523;28;20515;-59
2020/12/07 09:19:57;;;;;;;15.30;10.55;;;6.90;99.90;;;;;;5095903;28;20196;-59
2020/12/07 09:22:22;;;;;;;16.17;11.68;;;7.00;99.90;;;;;;5095099;28;20504;-59
2020/12/07 09:24:48;;;;;;;15.95;11.45;;;7.00;99.90;;;;;;5095980;28;20171;-59
2020/12/07 09:27:14;;;;;;;17.90;10.65;;;7.10;99.90;;;;;;5095350;28;20168;-59
2020/12/07 09:29:40;;;;;;;15.63;10.93;;;7.10;99.90;;;;;;5095262;28;20171;-59
2020/12/07 09:32:06;;;;;;;13.93;9.93;;;7.10;99.90;;;;;;5095387;28;20168;-59
2020/12/07 09:34:31;;;;;;;14.70;10.40;;;7.20;99.90;;;;;;5095165;28;20178;-59
2020/12/07 09:36:57;;;;;;;14.63;10.50;;;7.20;99.90;;;;;;5095443;28;20159;-59
2020/12/07 09:39:22;;;;;;;15.35;10.65;;;7.20;99.90;;;;;;5095821;28;20497;-59
2020/12/07 09:41:48;;;;;;;15.50;10.45;;;7.30;99.90;;;;;;5099262;28;20168;-59
2020/12/07 09:44:14;;;;;;;14.90;10.68;;;7.30;99.90;;;;;;5099404;28;20558;-62
2020/12/07 09:46:40;;;;;;;15.68;10.77;;;7.30;99.90;;;;;;5101244;28;20213;-59
2020/12/07 09:49:05;;;;;;;16.38;10.63;;;7.30;99.90;;;;;;5100906;28;20174;-59
2020/12/07 09:51:31;;;;;;;17.63;11.13;;;7.40;99.90;;;;;;5100480;28;20199;-59
2020/12/07 09:53:56;;;;;;;16.25;9.90;;;7.40;99.90;;;;;;5098838;28;20191;-59
2020/12/07 09:56:24;;;;;;;14.07;10.00;;;7.40;99.90;;;;;;5095811;28;20218;-59
2020/12/07 09:58:50;;;;;;;14.57;10.63;;;7.50;99.90;;;;;;5095058;28;20195;-59
2020/12/07 10:01:15;;;;;;;15.07;10.45;;;7.60;99.90;;;;;;5095150;28;20484;-59
2020/12/07 10:03:41;;;;;;;15.13;10.80;;;7.70;99.90;;;;;;5094935;28;20174;-59
2020/12/07 10:06:06;;;;;;;15.13;10.65;;;7.70;99.90;;;;;;5095080;28;20189;-58
2020/12/07 10:08:32;;;;;;;14.05;9.93;;;7.80;99.90;;;;;;5094652;28;20167;-59
2020/12/07 10:10:57;;;;;;;16.98;10.95;;;7.90;99.90;;;;;;5094961;28;20613;-58
2020/12/07 10:13:23;;;;;;;15.45;10.68;;;7.90;99.90;;;;;;5094770;28;20164;-58
2020/12/07 10:15:48;;;;;;;14.15;10.20;;;7.90;99.90;;;;;;5095395;28;20500;-58
2020/12/07 10:18:14;;;;;;;15.18;10.60;;;7.90;99.90;;;;;;5097379;28;20178;-58
2020/12/07 10:20:40;;;;;;;17.63;11.07;;;7.90;99.90;;;;;;5099045;28;20187;-58
2020/12/07 10:23:05;;;;;;;13.90;10.30;;;7.90;99.90;;;;;;5099705;28;20170;-58
2020/12/07 10:25:31;;;;;;;15.18;10.63;;;7.90;99.90;;;;;;5098998;28;20163;-58
2020/12/07 10:27:56;;;;;;;17.58;10.73;;;7.90;99.90;;;;;;5099213;28;20175;-58
2020/12/07 10:30:22;;;;;;;16.45;10.27;;;7.80;99.90;;;;;;5099190;28;20465;-58
2020/12/07 10:32:47;;;;;;;14.48;10.18;;;7.80;99.90;;;;;;5099008;28;20228;-58
2020/12/07 10:35:13;;;;;;;16.85;11.48;;;7.80;99.90;;;;;;5098729;28;20469;-58
2020/12/07 10:37:38;;;;;;;16.40;10.40;;;7.80;99.90;;;;;;5098498;28;20183;-58
2020/12/07 10:40:04;;;;;;;20.52;12.63;;;7.90;99.90;;;;;;5098425;28;20207;-59
2020/12/07 10:42:29;;;;;;;15.88;10.95;;;7.90;99.90;;;;;;5098686;28;20440;-59
2020/12/07 10:44:54;;;;;;;15.82;10.82;;;7.90;99.90;;;;;;5098212;28;20182;-58
2020/12/07 10:47:20;;;;;;;14.32;10.73;;;7.90;99.90;;;;;;5099047;28;20152;-60
2020/12/07 10:49:45;;;;;;;17.15;11.00;;;7.90;99.90;;;;;;5098082;28;20456;-58
2020/12/07 10:52:11;;;;;;;15.80;10.65;;;7.90;99.90;;;;;;5098802;28;20209;-58
2020/12/07 10:54:36;;;;;;;15.07;10.73;;;7.90;99.90;;;;;;5099156;28;20164;-58
2020/12/07 10:57:02;;;;;;;14.18;10.10;;;7.90;99.90;;;;;;5098292;28;20502;-59
2020/12/07 10:59:27;;;;;;;15.50;9.82;;;8.00;99.90;;;;;;5098412;28;20256;-59
2020/12/07 11:01:54;;;;;;;13.75;9.93;;;8.00;99.90;;;;;;5098414;28;20164;-59
2020/12/07 11:04:20;;;;;;;17.08;11.20;;;8.10;99.90;;;;;;5098455;28;20228;-59
2020/12/07 11:06:48;;;;;;;13.52;10.00;;;8.20;99.90;;;;;;5098891;28;20506;-58
2020/12/07 11:09:16;;;;;;;15.32;10.98;;;8.20;99.90;;;;;;5098093;28;20176;-59
2020/12/07 11:11:45;;;;;;;15.13;9.75;;;8.30;99.90;;;;;;5098836;28;20168;-58
2020/12/07 11:14:10;;;;;;;14.90;10.00;;;8.30;99.90;;;;;;5098465;28;20168;-58
2020/12/07 11:16:36;;;;;;;13.85;11.02;;;8.30;99.90;;;;;;5098873;28;20220;-58
2020/12/07 11:19:01;;;;;;;15.43;9.95;;;8.40;99.90;;;;;;5098081;28;20188;-58
2020/12/07 11:21:27;;;;;;;14.40;10.25;;;8.40;99.90;;;;;;5098408;28;20573;-59
2020/12/07 11:23:52;;;;;;;13.90;10.63;;;8.40;99.90;;;;;;5098207;28;20167;-58
2020/12/07 11:26:19;;;;;;;15.27;10.35;;;8.40;99.90;;;;;;5097620;28;20159;-58
2020/12/07 11:28:45;;;;;;;14.45;10.27;;;8.30;99.90;;;;;;5096648;28;20176;-58
2020/12/07 11:31:16;;;;;;;15.32;10.85;;;8.30;99.90;;;;;;5096749;28;20168;-58
2020/12/07 11:33:42;;;;;;;13.57;10.20;;;8.30;99.90;;;;;;5097615;28;20159;-58
2020/12/07 11:36:07;;;;;;;15.63;11.23;;;8.30;99.90;;;;;;5098148;28;20199;-58
2020/12/07 11:38:41;;;;;;;15.57;11.25;;;8.30;99.90;;;;;;5097628;28;20182;-58
2020/12/07 11:46:30;;;;;;;16.75;11.15;;;8.40;99.90;;;;;;5097395;28;20211;-58
2020/12/07 11:48:56;;;;;;;14.30;10.30;;;8.40;99.90;;;;;;5097376;28;20167;-59
2020/12/07 11:51:26;;;;;;;15.80;10.88;;;8.40;99.90;;;;;;5097420;28;20168;-59
2020/12/07 11:53:54;;;;;;;14.55;10.88;;;8.40;99.90;;;;;;5097227;28;20178;-59
2020/12/07 11:56:40;;;;;;;14.70;10.35;;;8.40;99.90;;;;;;5097420;28;20168;-59
2020/12/07 11:59:06;;;;;;;16.67;11.25;;;8.40;99.90;;;;;;5096653;28;20202;-57
2020/12/07 12:01:33;;;;;;;15.38;10.35;;;8.30;99.90;;;;;;5097279;28;20246;-59
2020/12/07 12:03:59;;;;;;;17.08;11.25;;;8.40;99.90;;;;;;5096925;28;20202;-59
2020/12/07 12:06:32;;;;;;;14.95;10.85;;;8.40;99.90;;;;;;5097057;28;20178;-59
2020/12/07 12:08:59;;;;;;;14.45;10.57;;;8.40;99.90;;;;;;5097226;28;20159;-59
2020/12/07 12:11:29;;;;;;;14.80;10.88;;;8.40;99.90;;;;;;5097295;28;20171;-59
2020/12/07 12:13:55;;;;;;;19.05;11.27;;;8.40;99.90;;;;;;5096821;28;20607;-59
2020/12/07 12:16:20;;;;;;;14.68;10.18;;;8.40;99.90;;;;;;5096892;28;20176;-59
2020/12/07 12:18:46;;;;;;;16.00;11.23;;;8.40;99.90;;;;;;5096385;28;20182;-57
2020/12/07 12:21:11;;;;;;;14.25;10.18;;;8.40;99.90;;;;;;5096954;28;20163;-58
2020/12/07 12:23:37;;;;;;;17.73;11.27;;;8.40;99.90;;;;;;5096758;28;20160;-59
2020/12/07 12:26:02;;;;;;;14.27;10.43;;;8.40;99.90;;;;;;5096523;28;20167;-59
2020/12/07 12:28:28;;;;;;;15.93;11.02;;;8.40;99.90;;;;;;5096788;28;20194;-59
2020/12/07 12:30:53;;;;;;;15.13;11.10;;;8.40;99.90;;;;;;5096811;28;20203;-59
2020/12/07 12:33:19;;;;;;;16.67;11.48;;;8.40;99.90;;;;;;5096419;28;20178;-58
2020/12/07 12:35:46;;;;;;;13.48;10.52;;;8.40;99.90;;;;;;5096752;28;20182;-59
2020/12/07 12:38:11;;;;;;;14.40;10.75;;;8.40;99.90;;;;;;5096592;28;20159;-59
2020/12/07 12:40:36;;;;;;;16.17;11.05;;;8.40;99.90;;;;;;5095912;28;20263;-58
2020/12/07 12:43:02;;;;;;;15.70;11.60;;;8.40;99.90;;;;;;5096177;28;20611;-59
2020/12/07 12:45:27;;;;;;;16.70;11.07;;;8.30;99.90;;;;;;5096109;28;20179;-59
2020/12/07 12:47:53;;;;;;;16.30;10.80;;;8.30;99.90;;;;;;5096141;28;20167;-59
2020/12/07 12:50:18;;;;;;;14.75;11.13;;;8.30;99.90;;;;;;5096098;28;20171;-59
2020/12/07 12:52:45;;;;;;;16.13;11.35;;;8.30;99.90;;;;;;5095118;28;20180;-59
2020/12/07 12:55:11;;;;;;;15.10;11.07;;;8.30;99.90;;;;;;5096108;28;20164;-59
2020/12/07 12:57:37;;;;;;;15.50;11.00;;;8.30;99.90;;;;;;5096288;28;20224;-59
2020/12/07 13:00:06;;;;;;;15.13;11.10;;;8.30;99.90;;;;;;5095728;28;20311;-59
2020/12/07 13:02:32;;;;;;;15.93;11.15;;;8.30;99.90;;;;;;5096133;28;20187;-58